LTBA/IST METAR and TAF weather

Enter ICAO airport designator
Station Type Date Time Source
LTBA METAR 2021/01/22 05:50 UTC NOAA

LTBA 220550Z 20010KT CAVOK 11/05 Q1025 NOSIG


Station Type Date Time Source
LTBA Decoded METAR 2021/01/22 05:50 UTC NOAA

Istanbul / Ataturk, Turkey (LTBA) 40-58N 028-49E 37M
Jan 22, 2021 - 12:50 AM EST / 2021.01.22 0550 UTC
Wind: from the SSW (200 degrees) at 12 MPH (10 KT):0
Visibility: greater than 7 mile(s):0
Temperature: 51 F (11 C)
Dew Point: 41 F (5 C)
Relative Humidity: 66%
Pressure (altimeter): 30.27 in. Hg (1025 hPa)
ob: LTBA 220550Z 20010KT CAVOK 11/05 Q1025 NOSIG
cycle: 6

Station Type Date Time Source
LTBA TAF 2021/01/22 06:03 UTC NOAA

TAF LTBA 220440Z 2206/2312 21015G25KT CAVOK
BECMG 2218/2220 21015KT SCT040 SCT100

Example: see airport list